sensor_id;sensor_type;location;lat;lon;timestamp;P1;durP1;ratioP1;P2;durP2;ratioP2
81160;SDS011;70637;48.514;14.500;2023-06-10T00:01:13;6.78;;;3.20;;
81160;SDS011;70637;48.514;14.500;2023-06-10T00:03:40;5.18;;;2.92;;
81160;SDS011;70637;48.514;14.500;2023-06-10T00:06:06;4.63;;;2.78;;
81160;SDS011;70637;48.514;14.500;2023-06-10T00:08:32;5.20;;;2.85;;
81160;SDS011;70637;48.514;14.500;2023-06-10T00:11:00;4.47;;;3.10;;
81160;SDS011;70637;48.514;14.500;2023-06-10T00:13:28;4.80;;;2.83;;
81160;SDS011;70637;48.514;14.500;2023-06-10T00:15:54;4.93;;;3.10;;
81160;SDS011;70637;48.514;14.500;2023-06-10T00:18:20;4.47;;;2.80;;
81160;SDS011;70637;48.514;14.500;2023-06-10T00:20:47;5.35;;;3.00;;
81160;SDS011;70637;48.514;14.500;2023-06-10T00:23:17;4.07;;;2.40;;
81160;SDS011;70637;48.514;14.500;2023-06-10T00:25:43;4.60;;;3.22;;
81160;SDS011;70637;48.514;14.500;2023-06-10T00:28:09;4.20;;;2.70;;
81160;SDS011;70637;48.514;14.500;2023-06-10T00:30:35;4.10;;;3.00;;
81160;SDS011;70637;48.514;14.500;2023-06-10T00:33:00;4.90;;;3.10;;
81160;SDS011;70637;48.514;14.500;2023-06-10T00:35:26;3.72;;;2.65;;
81160;SDS011;70637;48.514;14.500;2023-06-10T00:37:51;4.05;;;2.90;;
81160;SDS011;70637;48.514;14.500;2023-06-10T00:40:17;3.60;;;2.70;;
81160;SDS011;70637;48.514;14.500;2023-06-10T00:42:43;4.40;;;2.65;;
81160;SDS011;70637;48.514;14.500;2023-06-10T00:45:08;3.65;;;3.00;;
81160;SDS011;70637;48.514;14.500;2023-06-10T00:47:34;4.50;;;3.00;;
81160;SDS011;70637;48.514;14.500;2023-06-10T00:50:00;4.60;;;3.20;;
81160;SDS011;70637;48.514;14.500;2023-06-10T00:52:28;5.60;;;3.00;;
81160;SDS011;70637;48.514;14.500;2023-06-10T00:54:56;5.03;;;3.20;;
81160;SDS011;70637;48.514;14.500;2023-06-10T00:57:23;5.38;;;2.85;;
81160;SDS011;70637;48.514;14.500;2023-06-10T00:59:50;4.40;;;2.83;;
81160;SDS011;70637;48.514;14.500;2023-06-10T01:02:16;4.50;;;2.90;;
81160;SDS011;70637;48.514;14.500;2023-06-10T01:04:42;3.90;;;3.00;;
81160;SDS011;70637;48.514;14.500;2023-06-10T01:07:28;6.05;;;2.90;;
81160;SDS011;70637;48.514;14.500;2023-06-10T01:13:15;8.30;;;2.70;;
81160;SDS011;70637;48.514;14.500;2023-06-10T01:15:42;3.83;;;3.28;;
81160;SDS011;70637;48.514;14.500;2023-06-10T01:18:09;3.65;;;2.92;;
81160;SDS011;70637;48.514;14.500;2023-06-10T01:20:40;5.20;;;2.83;;
81160;SDS011;70637;48.514;14.500;2023-06-10T01:23:08;3.72;;;2.95;;
81160;SDS011;70637;48.514;14.500;2023-06-10T01:25:37;4.03;;;2.83;;
81160;SDS011;70637;48.514;14.500;2023-06-10T01:31:05;3.80;;;2.78;;
81160;SDS011;70637;48.514;14.500;2023-06-10T01:33:47;4.53;;;3.10;;
81160;SDS011;70637;48.514;14.500;2023-06-10T01:36:15;5.10;;;3.08;;
81160;SDS011;70637;48.514;14.500;2023-06-10T01:38:42;3.30;;;3.00;;
81160;SDS011;70637;48.514;14.500;2023-06-10T01:41:10;3.50;;;2.70;;
81160;SDS011;70637;48.514;14.500;2023-06-10T01:43:38;3.90;;;2.85;;
81160;SDS011;70637;48.514;14.500;2023-06-10T01:46:04;4.90;;;2.80;;
81160;SDS011;70637;48.514;14.500;2023-06-10T01:48:30;3.55;;;2.70;;
81160;SDS011;70637;48.514;14.500;2023-06-10T01:50:56;3.72;;;2.72;;
81160;SDS011;70637;48.514;14.500;2023-06-10T01:53:22;5.00;;;2.83;;
81160;SDS011;70637;48.514;14.500;2023-06-10T01:55:48;3.13;;;2.67;;
81160;SDS011;70637;48.514;14.500;2023-06-10T01:58:13;5.00;;;2.58;;
81160;SDS011;70637;48.514;14.500;2023-06-10T02:00:39;5.13;;;3.03;;
81160;SDS011;70637;48.514;14.500;2023-06-10T02:03:05;3.58;;;2.72;;
81160;SDS011;70637;48.514;14.500;2023-06-10T02:05:31;3.47;;;2.60;;
81160;SDS011;70637;48.514;14.500;2023-06-10T02:07:57;3.53;;;2.67;;
81160;SDS011;70637;48.514;14.500;2023-06-10T02:10:22;5.18;;;3.03;;
81160;SDS011;70637;48.514;14.500;2023-06-10T02:12:48;3.35;;;2.60;;
81160;SDS011;70637;48.514;14.500;2023-06-10T02:15:14;4.63;;;2.80;;
81160;SDS011;70637;48.514;14.500;2023-06-10T02:17:40;3.47;;;3.00;;
81160;SDS011;70637;48.514;14.500;2023-06-10T02:20:05;4.15;;;2.60;;
81160;SDS011;70637;48.514;14.500;2023-06-10T02:22:32;3.60;;;2.55;;
81160;SDS011;70637;48.514;14.500;2023-06-10T02:24:58;3.40;;;2.63;;
81160;SDS011;70637;48.514;14.500;2023-06-10T02:27:24;4.00;;;2.78;;
81160;SDS011;70637;48.514;14.500;2023-06-10T02:29:50;3.72;;;2.80;;
81160;SDS011;70637;48.514;14.500;2023-06-10T02:32:16;3.40;;;2.70;;
81160;SDS011;70637;48.514;14.500;2023-06-10T02:34:42;3.47;;;2.60;;
81160;SDS011;70637;48.514;14.500;2023-06-10T02:37:08;3.65;;;2.70;;
81160;SDS011;70637;48.514;14.500;2023-06-10T02:39:34;4.25;;;2.85;;
81160;SDS011;70637;48.514;14.500;2023-06-10T02:42:00;3.22;;;2.50;;
81160;SDS011;70637;48.514;14.500;2023-06-10T02:44:26;3.28;;;2.78;;
81160;SDS011;70637;48.514;14.500;2023-06-10T02:46:51;3.33;;;2.60;;
81160;SDS011;70637;48.514;14.500;2023-06-10T02:49:17;5.00;;;3.00;;
81160;SDS011;70637;48.514;14.500;2023-06-10T02:51:43;3.97;;;2.67;;
81160;SDS011;70637;48.514;14.500;2023-06-10T02:54:09;4.80;;;3.00;;
81160;SDS011;70637;48.514;14.500;2023-06-10T02:56:34;3.35;;;2.78;;
81160;SDS011;70637;48.514;14.500;2023-06-10T02:59:01;2.80;;;2.42;;
81160;SDS011;70637;48.514;14.500;2023-06-10T03:01:27;3.85;;;2.85;;
81160;SDS011;70637;48.514;14.500;2023-06-10T03:03:52;3.20;;;2.80;;
81160;SDS011;70637;48.514;14.500;2023-06-10T03:06:18;3.13;;;2.63;;
81160;SDS011;70637;48.514;14.500;2023-06-10T03:08:44;4.95;;;3.00;;
81160;SDS011;70637;48.514;14.500;2023-06-10T03:11:10;3.20;;;2.65;;
81160;SDS011;70637;48.514;14.500;2023-06-10T03:13:37;5.75;;;2.80;;
81160;SDS011;70637;48.514;14.500;2023-06-10T03:16:04;3.17;;;2.55;;
81160;SDS011;70637;48.514;14.500;2023-06-10T03:18:30;3.88;;;2.85;;
81160;SDS011;70637;48.514;14.500;2023-06-10T03:20:55;3.00;;;2.70;;
81160;SDS011;70637;48.514;14.500;2023-06-10T03:23:22;3.60;;;2.92;;
81160;SDS011;70637;48.514;14.500;2023-06-10T03:25:48;3.67;;;2.47;;
81160;SDS011;70637;48.514;14.500;2023-06-10T03:28:14;2.92;;;2.35;;
81160;SDS011;70637;48.514;14.500;2023-06-10T03:30:40;2.95;;;2.60;;
81160;SDS011;70637;48.514;14.500;2023-06-10T03:33:05;3.33;;;2.45;;
81160;SDS011;70637;48.514;14.500;2023-06-10T03:35:31;3.20;;;2.45;;
81160;SDS011;70637;48.514;14.500;2023-06-10T03:37:57;3.80;;;2.80;;
81160;SDS011;70637;48.514;14.500;2023-06-10T03:40:24;3.90;;;2.50;;
81160;SDS011;70637;48.514;14.500;2023-06-10T03:42:49;3.60;;;2.80;;
81160;SDS011;70637;48.514;14.500;2023-06-10T03:45:15;3.20;;;2.60;;
81160;SDS011;70637;48.514;14.500;2023-06-10T03:47:41;4.00;;;2.38;;
81160;SDS011;70637;48.514;14.500;2023-06-10T03:50:08;3.30;;;2.60;;
81160;SDS011;70637;48.514;14.500;2023-06-10T03:52:35;3.20;;;2.90;;
81160;SDS011;70637;48.514;14.500;2023-06-10T03:55:01;2.83;;;2.47;;
81160;SDS011;70637;48.514;14.500;2023-06-10T03:57:27;3.03;;;2.58;;
81160;SDS011;70637;48.514;14.500;2023-06-10T03:59:53;3.28;;;2.55;;
81160;SDS011;70637;48.514;14.500;2023-06-10T04:02:20;3.85;;;2.65;;
81160;SDS011;70637;48.514;14.500;2023-06-10T04:04:46;3.63;;;2.80;;
81160;SDS011;70637;48.514;14.500;2023-06-10T04:07:11;3.33;;;2.53;;
81160;SDS011;70637;48.514;14.500;2023-06-10T04:09:38;2.88;;;2.40;;
81160;SDS011;70637;48.514;14.500;2023-06-10T04:12:04;4.05;;;2.78;;
81160;SDS011;70637;48.514;14.500;2023-06-10T04:14:35;3.22;;;2.58;;
81160;SDS011;70637;48.514;14.500;2023-06-10T04:17:02;2.97;;;2.67;;
81160;SDS011;70637;48.514;14.500;2023-06-10T04:19:31;5.68;;;2.45;;
81160;SDS011;70637;48.514;14.500;2023-06-10T04:21:57;3.00;;;2.58;;
81160;SDS011;70637;48.514;14.500;2023-06-10T04:24:25;7.15;;;2.97;;
81160;SDS011;70637;48.514;14.500;2023-06-10T04:26:51;4.40;;;3.03;;
81160;SDS011;70637;48.514;14.500;2023-06-10T04:29:16;5.07;;;2.80;;
81160;SDS011;70637;48.514;14.500;2023-06-10T04:31:42;6.18;;;3.10;;
81160;SDS011;70637;48.514;14.500;2023-06-10T04:34:08;4.38;;;2.85;;
81160;SDS011;70637;48.514;14.500;2023-06-10T04:36:33;8.27;;;3.00;;
81160;SDS011;70637;48.514;14.500;2023-06-10T04:38:59;7.90;;;3.10;;
81160;SDS011;70637;48.514;14.500;2023-06-10T04:41:25;4.30;;;2.75;;
81160;SDS011;70637;48.514;14.500;2023-06-10T04:43:52;7.03;;;3.00;;
81160;SDS011;70637;48.514;14.500;2023-06-10T04:46:18;5.22;;;2.97;;
81160;SDS011;70637;48.514;14.500;2023-06-10T04:48:44;3.50;;;2.63;;
81160;SDS011;70637;48.514;14.500;2023-06-10T04:51:12;15.95;;;3.25;;
81160;SDS011;70637;48.514;14.500;2023-06-10T04:53:38;5.95;;;3.00;;
81160;SDS011;70637;48.514;14.500;2023-06-10T04:56:04;9.75;;;2.97;;
81160;SDS011;70637;48.514;14.500;2023-06-10T04:58:30;8.35;;;2.90;;
81160;SDS011;70637;48.514;14.500;2023-06-10T05:00:55;5.15;;;2.78;;
81160;SDS011;70637;48.514;14.500;2023-06-10T05:03:21;7.50;;;3.33;;
81160;SDS011;70637;48.514;14.500;2023-06-10T05:05:46;8.85;;;3.20;;
81160;SDS011;70637;48.514;14.500;2023-06-10T05:08:12;6.45;;;3.10;;
81160;SDS011;70637;48.514;14.500;2023-06-10T05:10:38;9.32;;;3.00;;
81160;SDS011;70637;48.514;14.500;2023-06-10T05:13:04;8.43;;;2.97;;
81160;SDS011;70637;48.514;14.500;2023-06-10T05:15:30;9.25;;;2.95;;
81160;SDS011;70637;48.514;14.500;2023-06-10T05:17:56;5.32;;;3.05;;
81160;SDS011;70637;48.514;14.500;2023-06-10T05:20:22;5.45;;;3.03;;
81160;SDS011;70637;48.514;14.500;2023-06-10T05:22:48;5.90;;;2.92;;
81160;SDS011;70637;48.514;14.500;2023-06-10T05:25:14;7.63;;;3.08;;
81160;SDS011;70637;48.514;14.500;2023-06-10T05:27:39;5.88;;;3.08;;
81160;SDS011;70637;48.514;14.500;2023-06-10T05:30:07;5.28;;;2.90;;
81160;SDS011;70637;48.514;14.500;2023-06-10T05:32:33;6.20;;;2.97;;
81160;SDS011;70637;48.514;14.500;2023-06-10T05:34:59;9.00;;;3.10;;
81160;SDS011;70637;48.514;14.500;2023-06-10T05:37:26;5.93;;;2.75;;
81160;SDS011;70637;48.514;14.500;2023-06-10T05:39:52;4.72;;;2.72;;
81160;SDS011;70637;48.514;14.500;2023-06-10T05:42:17;5.28;;;3.20;;
81160;SDS011;70637;48.514;14.500;2023-06-10T05:44:43;5.43;;;2.80;;
81160;SDS011;70637;48.514;14.500;2023-06-10T05:47:09;6.25;;;2.80;;
81160;SDS011;70637;48.514;14.500;2023-06-10T05:49:35;4.60;;;3.03;;
81160;SDS011;70637;48.514;14.500;2023-06-10T05:52:00;5.03;;;3.05;;
81160;SDS011;70637;48.514;14.500;2023-06-10T05:54:26;5.78;;;3.10;;
81160;SDS011;70637;48.514;14.500;2023-06-10T05:56:52;4.93;;;2.83;;
81160;SDS011;70637;48.514;14.500;2023-06-10T05:59:18;11.35;;;3.92;;
81160;SDS011;70637;48.514;14.500;2023-06-10T06:01:43;23.08;;;10.48;;
81160;SDS011;70637;48.514;14.500;2023-06-10T06:04:09;57.63;;;25.90;;
81160;SDS011;70637;48.514;14.500;2023-06-10T06:06:35;110.35;;;45.92;;
81160;SDS011;70637;48.514;14.500;2023-06-10T06:09:03;141.63;;;62.53;;
81160;SDS011;70637;48.514;14.500;2023-06-10T06:11:28;162.52;;;71.53;;
81160;SDS011;70637;48.514;14.500;2023-06-10T06:13:54;185.85;;;84.70;;
81160;SDS011;70637;48.514;14.500;2023-06-10T06:16:21;213.65;;;88.50;;
81160;SDS011;70637;48.514;14.500;2023-06-10T06:18:46;219.80;;;92.07;;
81160;SDS011;70637;48.514;14.500;2023-06-10T06:21:12;233.05;;;94.35;;
81160;SDS011;70637;48.514;14.500;2023-06-10T06:23:38;219.05;;;92.75;;
81160;SDS011;70637;48.514;14.500;2023-06-10T06:26:03;205.70;;;89.32;;
81160;SDS011;70637;48.514;14.500;2023-06-10T06:28:29;194.57;;;87.97;;
81160;SDS011;70637;48.514;14.500;2023-06-10T06:30:56;203.00;;;87.43;;
81160;SDS011;70637;48.514;14.500;2023-06-10T06:33:22;202.20;;;84.95;;
81160;SDS011;70637;48.514;14.500;2023-06-10T06:35:47;197.77;;;85.13;;
81160;SDS011;70637;48.514;14.500;2023-06-10T06:38:13;185.02;;;81.43;;
81160;SDS011;70637;48.514;14.500;2023-06-10T06:40:38;177.05;;;80.10;;
81160;SDS011;70637;48.514;14.500;2023-06-10T06:43:04;176.85;;;76.38;;
81160;SDS011;70637;48.514;14.500;2023-06-10T06:45:30;176.45;;;75.70;;
81160;SDS011;70637;48.514;14.500;2023-06-10T06:47:55;172.43;;;76.68;;
81160;SDS011;70637;48.514;14.500;2023-06-10T06:50:21;166.45;;;74.40;;
81160;SDS011;70637;48.514;14.500;2023-06-10T06:52:47;160.93;;;75.43;;
81160;SDS011;70637;48.514;14.500;2023-06-10T06:55:13;154.77;;;70.55;;
81160;SDS011;70637;48.514;14.500;2023-06-10T06:57:38;155.05;;;70.60;;
81160;SDS011;70637;48.514;14.500;2023-06-10T07:00:04;160.38;;;70.65;;
81160;SDS011;70637;48.514;14.500;2023-06-10T07:02:33;149.80;;;70.03;;
81160;SDS011;70637;48.514;14.500;2023-06-10T07:04:58;153.57;;;68.53;;
81160;SDS011;70637;48.514;14.500;2023-06-10T07:07:24;151.68;;;68.57;;
81160;SDS011;70637;48.514;14.500;2023-06-10T07:09:50;147.90;;;68.60;;
81160;SDS011;70637;48.514;14.500;2023-06-10T07:12:16;146.60;;;68.10;;
81160;SDS011;70637;48.514;14.500;2023-06-10T07:14:42;146.65;;;67.43;;
81160;SDS011;70637;48.514;14.500;2023-06-10T07:17:08;140.93;;;64.53;;
81160;SDS011;70637;48.514;14.500;2023-06-10T07:19:34;146.38;;;67.32;;
81160;SDS011;70637;48.514;14.500;2023-06-10T07:21:59;129.30;;;63.97;;
81160;SDS011;70637;48.514;14.500;2023-06-10T07:24:25;138.35;;;64.95;;
81160;SDS011;70637;48.514;14.500;2023-06-10T07:26:51;130.43;;;62.47;;
81160;SDS011;70637;48.514;14.500;2023-06-10T07:29:16;132.13;;;62.88;;
81160;SDS011;70637;48.514;14.500;2023-06-10T07:31:42;129.73;;;62.38;;
81160;SDS011;70637;48.514;14.500;2023-06-10T07:34:08;131.90;;;59.50;;
81160;SDS011;70637;48.514;14.500;2023-06-10T07:36:33;119.07;;;58.08;;
81160;SDS011;70637;48.514;14.500;2023-06-10T07:38:59;118.55;;;54.50;;
81160;SDS011;70637;48.514;14.500;2023-06-10T07:41:25;105.47;;;49.75;;
81160;SDS011;70637;48.514;14.500;2023-06-10T07:43:51;97.25;;;48.15;;
81160;SDS011;70637;48.514;14.500;2023-06-10T07:46:20;90.07;;;45.35;;
81160;SDS011;70637;48.514;14.500;2023-06-10T07:48:46;88.75;;;44.08;;
81160;SDS011;70637;48.514;14.500;2023-06-10T07:51:12;90.90;;;42.95;;
81160;SDS011;70637;48.514;14.500;2023-06-10T07:53:38;89.43;;;41.15;;
81160;SDS011;70637;48.514;14.500;2023-06-10T07:56:03;78.78;;;40.05;;
81160;SDS011;70637;48.514;14.500;2023-06-10T07:58:29;75.72;;;39.00;;
81160;SDS011;70637;48.514;14.500;2023-06-10T08:00:55;74.80;;;38.50;;
81160;SDS011;70637;48.514;14.500;2023-06-10T08:03:21;73.47;;;36.22;;
81160;SDS011;70637;48.514;14.500;2023-06-10T08:05:47;68.53;;;34.72;;
81160;SDS011;70637;48.514;14.500;2023-06-10T08:08:13;70.47;;;33.35;;
81160;SDS011;70637;48.514;14.500;2023-06-10T08:10:38;68.90;;;33.15;;
81160;SDS011;70637;48.514;14.500;2023-06-10T08:13:04;60.60;;;31.17;;
81160;SDS011;70637;48.514;14.500;2023-06-10T08:15:30;59.67;;;30.20;;
81160;SDS011;70637;48.514;14.500;2023-06-10T08:17:55;54.08;;;28.35;;
81160;SDS011;70637;48.514;14.500;2023-06-10T08:20:24;56.10;;;26.85;;
81160;SDS011;70637;48.514;14.500;2023-06-10T08:22:50;48.47;;;26.08;;
81160;SDS011;70637;48.514;14.500;2023-06-10T08:25:16;41.70;;;23.98;;
81160;SDS011;70637;48.514;14.500;2023-06-10T08:27:41;45.20;;;23.58;;
81160;SDS011;70637;48.514;14.500;2023-06-10T08:30:07;43.35;;;21.50;;
81160;SDS011;70637;48.514;14.500;2023-06-10T08:32:35;35.67;;;19.90;;
81160;SDS011;70637;48.514;14.500;2023-06-10T08:35:01;28.70;;;15.27;;
81160;SDS011;70637;48.514;14.500;2023-06-10T08:37:28;26.02;;;14.40;;
81160;SDS011;70637;48.514;14.500;2023-06-10T08:39:53;21.92;;;12.70;;
81160;SDS011;70637;48.514;14.500;2023-06-10T08:42:23;24.15;;;12.90;;
81160;SDS011;70637;48.514;14.500;2023-06-10T08:45:17;19.73;;;12.73;;
81160;SDS011;70637;48.514;14.500;2023-06-10T08:47:46;18.67;;;11.02;;
81160;SDS011;70637;48.514;14.500;2023-06-10T08:50:17;18.15;;;12.05;;
81160;SDS011;70637;48.514;14.500;2023-06-10T08:52:44;18.08;;;10.20;;
81160;SDS011;70637;48.514;14.500;2023-06-10T08:55:57;14.07;;;9.38;;
81160;SDS011;70637;48.514;14.500;2023-06-10T08:58:00;13.88;;;9.65;;
81160;SDS011;70637;48.514;14.500;2023-06-10T09:00:28;14.90;;;8.70;;
81160;SDS011;70637;48.514;14.500;2023-06-10T09:02:55;11.52;;;8.30;;
81160;SDS011;70637;48.514;14.500;2023-06-10T09:05:22;10.57;;;7.97;;
81160;SDS011;70637;48.514;14.500;2023-06-10T09:07:48;12.10;;;8.05;;
81160;SDS011;70637;48.514;14.500;2023-06-10T09:10:15;10.48;;;7.85;;
81160;SDS011;70637;48.514;14.500;2023-06-10T09:12:41;10.88;;;8.02;;
81160;SDS011;70637;48.514;14.500;2023-06-10T09:15:07;10.05;;;7.28;;
81160;SDS011;70637;48.514;14.500;2023-06-10T09:17:34;10.57;;;7.50;;
81160;SDS011;70637;48.514;14.500;2023-06-10T09:20:05;9.20;;;7.60;;
81160;SDS011;70637;48.514;14.500;2023-06-10T09:22:34;8.82;;;7.25;;
81160;SDS011;70637;48.514;14.500;2023-06-10T09:25:07;10.18;;;7.28;;
81160;SDS011;70637;48.514;14.500;2023-06-10T09:27:50;10.65;;;7.72;;
81160;SDS011;70637;48.514;14.500;2023-06-10T09:30:31;10.25;;;7.00;;
81160;SDS011;70637;48.514;14.500;2023-06-10T09:33:02;8.57;;;6.70;;
81160;SDS011;70637;48.514;14.500;2023-06-10T09:35:34;9.55;;;7.03;;
81160;SDS011;70637;48.514;14.500;2023-06-10T09:38:00;8.45;;;7.00;;
81160;SDS011;70637;48.514;14.500;2023-06-10T09:40:27;11.75;;;7.50;;
81160;SDS011;70637;48.514;14.500;2023-06-10T09:42:54;11.85;;;7.32;;
81160;SDS011;70637;48.514;14.500;2023-06-10T09:45:21;16.25;;;7.22;;
81160;SDS011;70637;48.514;14.500;2023-06-10T09:47:51;9.93;;;7.00;;
81160;SDS011;70637;48.514;14.500;2023-06-10T09:50:18;12.02;;;6.70;;
81160;SDS011;70637;48.514;14.500;2023-06-10T09:52:47;8.93;;;5.97;;
81160;SDS011;70637;48.514;14.500;2023-06-10T09:55:13;11.43;;;6.22;;
81160;SDS011;70637;48.514;14.500;2023-06-10T09:57:39;13.18;;;6.10;;
81160;SDS011;70637;48.514;14.500;2023-06-10T10:00:07;12.63;;;8.63;;
81160;SDS011;70637;48.514;14.500;2023-06-10T10:02:44;31.67;;;15.32;;
81160;SDS011;70637;48.514;14.500;2023-06-10T10:05:20;55.10;;;20.77;;
81160;SDS011;70637;48.514;14.500;2023-06-10T10:07:47;75.80;;;25.92;;
81160;SDS011;70637;48.514;14.500;2023-06-10T10:10:13;76.05;;;31.58;;
81160;SDS011;70637;48.514;14.500;2023-06-10T10:12:40;74.78;;;30.48;;
81160;SDS011;70637;48.514;14.500;2023-06-10T10:15:07;79.25;;;30.55;;
81160;SDS011;70637;48.514;14.500;2023-06-10T10:17:40;77.97;;;31.38;;
81160;SDS011;70637;48.514;14.500;2023-06-10T10:20:21;81.10;;;30.88;;
81160;SDS011;70637;48.514;14.500;2023-06-10T10:22:51;72.47;;;28.95;;
81160;SDS011;70637;48.514;14.500;2023-06-10T10:25:25;71.70;;;27.55;;
81160;SDS011;70637;48.514;14.500;2023-06-10T10:28:05;64.22;;;27.02;;
81160;SDS011;70637;48.514;14.500;2023-06-10T10:30:37;70.03;;;26.20;;
81160;SDS011;70637;48.514;14.500;2023-06-10T10:36:16;55.83;;;22.85;;
81160;SDS011;70637;48.514;14.500;2023-06-10T10:38:44;52.45;;;21.95;;
81160;SDS011;70637;48.514;14.500;2023-06-10T10:41:12;53.13;;;22.05;;
81160;SDS011;70637;48.514;14.500;2023-06-10T10:43:39;43.70;;;18.10;;
81160;SDS011;70637;48.514;14.500;2023-06-10T10:46:11;39.58;;;16.58;;
81160;SDS011;70637;48.514;14.500;2023-06-10T10:48:38;49.13;;;15.32;;
81160;SDS011;70637;48.514;14.500;2023-06-10T10:51:06;37.53;;;14.15;;
81160;SDS011;70637;48.514;14.500;2023-06-10T10:53:32;34.70;;;14.48;;
81160;SDS011;70637;48.514;14.500;2023-06-10T10:55:59;37.30;;;14.50;;
81160;SDS011;70637;48.514;14.500;2023-06-10T10:58:32;40.88;;;15.10;;
81160;SDS011;70637;48.514;14.500;2023-06-10T11:00:58;37.70;;;14.07;;
81160;SDS011;70637;48.514;14.500;2023-06-10T11:03:27;29.40;;;13.32;;
81160;SDS011;70637;48.514;14.500;2023-06-10T11:05:56;33.33;;;13.60;;
81160;SDS011;70637;48.514;14.500;2023-06-10T11:11:00;27.27;;;9.20;;
81160;SDS011;70637;48.514;14.500;2023-06-10T11:13:42;29.23;;;9.57;;
81160;SDS011;70637;48.514;14.500;2023-06-10T11:16:42;35.15;;;9.65;;
81160;SDS011;70637;48.514;14.500;2023-06-10T11:19:08;28.50;;;9.23;;
81160;SDS011;70637;48.514;14.500;2023-06-10T11:24:24;24.02;;;8.07;;
81160;SDS011;70637;48.514;14.500;2023-06-10T11:26:51;38.85;;;9.70;;
81160;SDS011;70637;48.514;14.500;2023-06-10T11:29:16;31.90;;;9.50;;
81160;SDS011;70637;48.514;14.500;2023-06-10T11:31:46;23.40;;;8.98;;
81160;SDS011;70637;48.514;14.500;2023-06-10T11:34:15;23.38;;;8.15;;
81160;SDS011;70637;48.514;14.500;2023-06-10T11:36:48;20.60;;;7.97;;
81160;SDS011;70637;48.514;14.500;2023-06-10T11:39:14;21.13;;;8.10;;
81160;SDS011;70637;48.514;14.500;2023-06-10T11:41:40;18.85;;;8.00;;
81160;SDS011;70637;48.514;14.500;2023-06-10T11:44:12;17.70;;;7.80;;
81160;SDS011;70637;48.514;14.500;2023-06-10T11:46:38;13.70;;;7.40;;
81160;SDS011;70637;48.514;14.500;2023-06-10T11:49:07;14.80;;;7.72;;
81160;SDS011;70637;48.514;14.500;2023-06-10T11:51:36;17.92;;;8.07;;
81160;SDS011;70637;48.514;14.500;2023-06-10T11:54:04;19.15;;;7.68;;
81160;SDS011;70637;48.514;14.500;2023-06-10T11:56:30;13.13;;;7.05;;
81160;SDS011;70637;48.514;14.500;2023-06-10T11:58:58;17.75;;;7.20;;
81160;SDS011;70637;48.514;14.500;2023-06-10T12:01:29;22.02;;;7.13;;
81160;SDS011;70637;48.514;14.500;2023-06-10T12:04:00;23.05;;;7.35;;
81160;SDS011;70637;48.514;14.500;2023-06-10T12:06:39;19.80;;;7.30;;
81160;SDS011;70637;48.514;14.500;2023-06-10T12:11:41;22.98;;;7.30;;
81160;SDS011;70637;48.514;14.500;2023-06-10T12:14:08;18.77;;;6.63;;
81160;SDS011;70637;48.514;14.500;2023-06-10T12:16:34;16.63;;;6.65;;
81160;SDS011;70637;48.514;14.500;2023-06-10T12:19:04;13.32;;;6.88;;
81160;SDS011;70637;48.514;14.500;2023-06-10T12:21:32;18.27;;;6.88;;
81160;SDS011;70637;48.514;14.500;2023-06-10T12:24:05;13.75;;;6.63;;
81160;SDS011;70637;48.514;14.500;2023-06-10T12:29:19;15.23;;;6.85;;
81160;SDS011;70637;48.514;14.500;2023-06-10T12:31:55;15.20;;;7.18;;
81160;SDS011;70637;48.514;14.500;2023-06-10T12:37:01;14.35;;;6.25;;
81160;SDS011;70637;48.514;14.500;2023-06-10T12:39:29;16.77;;;7.30;;
81160;SDS011;70637;48.514;14.500;2023-06-10T12:41:58;19.30;;;6.82;;
81160;SDS011;70637;48.514;14.500;2023-06-10T12:44:33;17.00;;;7.03;;
81160;SDS011;70637;48.514;14.500;2023-06-10T12:47:00;14.27;;;7.32;;
81160;SDS011;70637;48.514;14.500;2023-06-10T12:49:32;14.55;;;6.40;;
81160;SDS011;70637;48.514;14.500;2023-06-10T12:51:58;14.50;;;6.88;;
81160;SDS011;70637;48.514;14.500;2023-06-10T12:54:23;17.05;;;7.10;;
81160;SDS011;70637;48.514;14.500;2023-06-10T12:56:49;24.88;;;7.43;;
81160;SDS011;70637;48.514;14.500;2023-06-10T12:59:15;19.98;;;7.03;;
81160;SDS011;70637;48.514;14.500;2023-06-10T13:01:41;18.63;;;6.18;;
81160;SDS011;70637;48.514;14.500;2023-06-10T13:04:06;21.70;;;6.53;;
81160;SDS011;70637;48.514;14.500;2023-06-10T13:06:32;14.65;;;6.57;;
81160;SDS011;70637;48.514;14.500;2023-06-10T13:09:01;22.33;;;6.55;;
81160;SDS011;70637;48.514;14.500;2023-06-10T13:11:27;15.93;;;6.30;;
81160;SDS011;70637;48.514;14.500;2023-06-10T13:13:53;14.63;;;6.25;;
81160;SDS011;70637;48.514;14.500;2023-06-10T13:16:19;13.05;;;7.00;;
81160;SDS011;70637;48.514;14.500;2023-06-10T13:18:44;17.42;;;6.68;;
81160;SDS011;70637;48.514;14.500;2023-06-10T13:21:11;16.83;;;6.85;;
81160;SDS011;70637;48.514;14.500;2023-06-10T13:23:36;17.98;;;6.10;;
81160;SDS011;70637;48.514;14.500;2023-06-10T13:26:02;9.40;;;6.00;;
81160;SDS011;70637;48.514;14.500;2023-06-10T13:28:28;11.52;;;6.35;;
81160;SDS011;70637;48.514;14.500;2023-06-10T13:30:53;13.70;;;6.00;;
81160;SDS011;70637;48.514;14.500;2023-06-10T13:33:19;15.52;;;6.28;;
81160;SDS011;70637;48.514;14.500;2023-06-10T13:35:46;11.85;;;6.13;;
81160;SDS011;70637;48.514;14.500;2023-06-10T13:38:12;15.15;;;6.30;;
81160;SDS011;70637;48.514;14.500;2023-06-10T13:40:37;8.05;;;5.93;;
81160;SDS011;70637;48.514;14.500;2023-06-10T13:43:03;11.60;;;6.30;;
81160;SDS011;70637;48.514;14.500;2023-06-10T13:45:29;12.90;;;6.35;;
81160;SDS011;70637;48.514;14.500;2023-06-10T13:47:54;14.38;;;6.18;;
81160;SDS011;70637;48.514;14.500;2023-06-10T13:50:20;12.82;;;6.07;;
81160;SDS011;70637;48.514;14.500;2023-06-10T13:52:45;9.85;;;5.90;;
81160;SDS011;70637;48.514;14.500;2023-06-10T13:55:11;17.83;;;6.07;;
81160;SDS011;70637;48.514;14.500;2023-06-10T13:57:37;12.32;;;6.28;;
81160;SDS011;70637;48.514;14.500;2023-06-10T14:00:02;9.65;;;6.13;;
81160;SDS011;70637;48.514;14.500;2023-06-10T14:02:29;8.23;;;6.40;;
81160;SDS011;70637;48.514;14.500;2023-06-10T14:04:55;10.43;;;5.90;;
81160;SDS011;70637;48.514;14.500;2023-06-10T14:07:21;14.75;;;5.85;;
81160;SDS011;70637;48.514;14.500;2023-06-10T14:09:46;9.02;;;6.30;;
81160;SDS011;70637;48.514;14.500;2023-06-10T14:12:12;10.77;;;5.80;;
81160;SDS011;70637;48.514;14.500;2023-06-10T14:14:38;10.82;;;5.90;;
81160;SDS011;70637;48.514;14.500;2023-06-10T14:17:03;9.70;;;6.00;;
81160;SDS011;70637;48.514;14.500;2023-06-10T14:19:30;11.23;;;6.20;;
81160;SDS011;70637;48.514;14.500;2023-06-10T14:21:55;9.98;;;5.57;;
81160;SDS011;70637;48.514;14.500;2023-06-10T14:24:21;7.50;;;5.93;;
81160;SDS011;70637;48.514;14.500;2023-06-10T14:26:47;10.77;;;5.93;;
81160;SDS011;70637;48.514;14.500;2023-06-10T14:29:12;10.65;;;5.35;;
81160;SDS011;70637;48.514;14.500;2023-06-10T14:31:39;9.35;;;5.97;;
81160;SDS011;70637;48.514;14.500;2023-06-10T14:34:05;8.82;;;5.95;;
81160;SDS011;70637;48.514;14.500;2023-06-10T14:36:33;12.73;;;6.53;;
81160;SDS011;70637;48.514;14.500;2023-06-10T14:38:58;10.18;;;6.30;;
81160;SDS011;70637;48.514;14.500;2023-06-10T14:41:24;7.88;;;5.85;;
81160;SDS011;70637;48.514;14.500;2023-06-10T14:43:51;11.65;;;6.00;;
81160;SDS011;70637;48.514;14.500;2023-06-10T14:46:17;8.80;;;5.90;;